Vicki K — WDI5136 — position and weather

sailwx.info

Track history (hours):
 
Tides and Currents Weather Stations Pressure Air Temp Water Temp Dewpoint Dewpoint Depression Visibility Wind Speed Wind Dir Waves Ship Positions

Vicki K

Owner: Charca Fish VIII LLC, mill valley, CA. More information available from US FCC via Universal Licensing System and Coast Guard Vessel Documentation Center.

Last reported at 2018-Jul-12 04:22 UTC. Time now 2018-Jul-16 00:51 UTC.
Position N 46°04' W 125°25'.

Length 32 m; draft 4.5 m.

Type: Fishing. MMSI: 367705530.

Date/timePositionNaut miles runAvg speedWind from/ knotsBaromVisibWave heightAir tempDewpointWater temp
2018-Jul-12 04:22N 46°04' W 125°25'2 6.7
2018-Jul-12 04:00N 46°06' W 125°23'3 6.6
2018-Jul-12 03:30N 46°09' W 125°21'5 6.5
2018-Jul-12 02:48N 46°13' W 125°18'3 6.6
2018-Jul-12 02:17N 46°16' W 125°16'2 7.2
2018-Jul-12 02:00N 46°18' W 125°14'4 7.8
2018-Jul-12 01:30N 46°21' W 125°11'4 7.5
2018-Jul-12 01:01N 46°24' W 125°08'4 7.7
2018-Jul-12 00:30N 46°27' W 125°05'4 7.8
2018-Jul-12 00:00N 46°30' W 125°02'4 7.8
2018-Jul-11 23:30N 46°34' W 124°59'4 7.6
2018-Jul-11 23:00N 46°37' W 124°55'4 7.9
2018-Jul-11 22:30N 46°40' W 124°51'4 8.0
2018-Jul-11 22:00N 46°43' W 124°48'4 7.9
2018-Jul-11 21:30N 46°46' W 124°44'4 8.0
2018-Jul-11 21:00N 46°49' W 124°40'4 7.3
2018-Jul-11 20:30N 46°50' W 124°35'3 6.9
2018-Jul-11 20:00N 46°52' W 124°31'4 7.2
2018-Jul-11 19:30N 46°53' W 124°26'3 6.7
2018-Jul-11 19:00N 46°55' W 124°22'3 6.4
2018-Jul-11 18:30N 46°55' W 124°17'3 6.7
2018-Jul-11 18:00N 46°55' W 124°12'3 5.5
2018-Jul-11 17:30N 46°55' W 124°08'1 0.6
2018-Jul-11 15:29N 46°54' W 124°06'0 0.0
2018-Jul-11 15:00N 46°54' W 124°06'0 0.0
2018-Jul-11 13:27N 46°54' W 124°06'0 0.0
2018-Jul-11 10:19N 46°54' W 124°06'0 0.0
2018-Jul-11 10:00N 46°54' W 124°06'0 0.0
2018-Jul-11 09:29N 46°54' W 124°06'0 0.0
2018-Jul-11 08:55N 46°54' W 124°06'0 0.0
2018-Jul-11 07:25N 46°54' W 124°06'0 0.0
2018-Jul-11 06:57N 46°54' W 124°06'0 0.0
2018-Jul-11 06:30N 46°54' W 124°06'0 0.0
2018-Jul-11 06:00N 46°54' W 124°06'1 0.1
2018-Jul-10 15:28N 46°55' W 124°08'3 6.3
2018-Jul-10 15:00N 46°54' W 124°12'4 7.4
2018-Jul-10 14:31N 46°52' W 124°17'3 6.8
2018-Jul-10 14:00N 46°50' W 124°21'3 6.1
2018-Jul-10 13:30N 46°47' W 124°23'3 5.8
2018-Jul-10 13:00N 46°45' W 124°26'3 5.9
2018-Jul-10 12:30N 46°43' W 124°29'3 6.8
2018-Jul-10 12:00N 46°40' W 124°32'3 6.5
2018-Jul-10 11:30N 46°38' W 124°35'3 6.5
2018-Jul-10 11:00N 46°36' W 124°38'3 6.6
2018-Jul-10 10:30N 46°33' W 124°42'7 6.5
2018-Jul-10 09:26N 46°28' W 124°49'3 6.4
2018-Jul-10 09:00N 46°26' W 124°51'3 6.5
2018-Jul-10 08:31N 46°24' W 124°55'5 6.5
2018-Jul-10 07:41N 46°20' W 124°60'1 6.4
2018-Jul-10 07:30N 46°19' W 125°01'3 6.7
2018-Jul-10 06:59N 46°16' W 125°04'4 6.8
2018-Jul-10 06:27N 46°13' W 125°07'3 6.8
2018-Jul-10 05:58N 46°11' W 125°11'3 6.7
2018-Jul-10 05:30N 46°08' W 125°13'4 6.8
2018-Jul-10 04:58N 46°05' W 125°16'5 6.9
2018-Jul-10 04:13N 46°00' W 125°18'2 6.9
2018-Jul-10 03:58N 45°59' W 125°19'3 6.9
2018-Jul-10 03:28N 45°55' W 125°21'14 1.0
2018-Jul-09 13:52N 46°09' W 125°17'5 7.9
2018-Jul-09 13:15N 46°12' W 125°12'2 8.1
2018-Jul-09 12:59N 46°14' W 125°10'4 7.9
2018-Jul-09 12:30N 46°17' W 125°06'4 7.9
2018-Jul-09 11:59N 46°20' W 125°02'4 7.8
2018-Jul-09 11:30N 46°22' W 124°59'4 7.8
2018-Jul-09 11:00N 46°25' W 124°55'4 8.0
2018-Jul-09 10:30N 46°28' W 124°51'4 7.9
2018-Jul-09 10:00N 46°31' W 124°47'4 7.8
2018-Jul-09 09:30N 46°34' W 124°43'4 7.9
2018-Jul-09 09:00N 46°37' W 124°39'4 7.9
2018-Jul-09 08:30N 46°40' W 124°35'4 8.0
2018-Jul-09 08:00N 46°42' W 124°31'4 7.8
2018-Jul-09 07:30N 46°45' W 124°27'4 7.7
2018-Jul-09 06:59N 46°48' W 124°23'4 7.9
2018-Jul-09 06:31N 46°51' W 124°20'4 7.7
2018-Jul-09 06:00N 46°53' W 124°15'5 7.9
2018-Jul-09 05:25N 46°55' W 124°08'  
2018-Jul-06 22:48N 46°55' W 124°07'2 5.9
2018-Jul-06 22:29N 46°55' W 124°09'3 5.5
2018-Jul-06 22:00N 46°54' W 124°13'2 4.9
2018-Jul-06 21:31N 46°52' W 124°16'2 4.7
2018-Jul-06 21:00N 46°51' W 124°19'2 4.1
2018-Jul-06 20:30N 46°49' W 124°20'2 4.8
2018-Jul-06 20:00N 46°47' W 124°20'  
Track history (hours):
 
Tides and Currents Weather Stations Pressure Air Temp Water Temp Dewpoint Dewpoint Depression Visibility Wind Speed Wind Dir Waves Ship Positions

Vicki K

Owner: Charca Fish VIII LLC, mill valley, CA. More information available from US FCC via Universal Licensing System and Coast Guard Vessel Documentation Center.

Last reported at 2018-Jul-12 04:22 UTC. Time now 2018-Jul-16 00:51 UTC.
Position N 46°04' W 125°25'.

Length 32 m; draft 4.5 m.

Type: Fishing. MMSI: 367705530.

Date/timePositionNaut miles runAvg speedWind from/ knotsBaromVisibWave heightAir tempDewpointWater temp
2018-Jul-12 04:22N 46°04' W 125°25'2 6.7
2018-Jul-12 04:00N 46°06' W 125°23'3 6.6
2018-Jul-12 03:30N 46°09' W 125°21'5 6.5
2018-Jul-12 02:48N 46°13' W 125°18'3 6.6
2018-Jul-12 02:17N 46°16' W 125°16'2 7.2
2018-Jul-12 02:00N 46°18' W 125°14'4 7.8
2018-Jul-12 01:30N 46°21' W 125°11'4 7.5
2018-Jul-12 01:01N 46°24' W 125°08'4 7.7
2018-Jul-12 00:30N 46°27' W 125°05'4 7.8
2018-Jul-12 00:00N 46°30' W 125°02'4 7.8
2018-Jul-11 23:30N 46°34' W 124°59'4 7.6
2018-Jul-11 23:00N 46°37' W 124°55'4 7.9
2018-Jul-11 22:30N 46°40' W 124°51'4 8.0
2018-Jul-11 22:00N 46°43' W 124°48'4 7.9
2018-Jul-11 21:30N 46°46' W 124°44'4 8.0
2018-Jul-11 21:00N 46°49' W 124°40'4 7.3
2018-Jul-11 20:30N 46°50' W 124°35'3 6.9
2018-Jul-11 20:00N 46°52' W 124°31'4 7.2
2018-Jul-11 19:30N 46°53' W 124°26'3 6.7
2018-Jul-11 19:00N 46°55' W 124°22'3 6.4
2018-Jul-11 18:30N 46°55' W 124°17'3 6.7
2018-Jul-11 18:00N 46°55' W 124°12'3 5.5
2018-Jul-11 17:30N 46°55' W 124°08'1 0.6
2018-Jul-11 15:29N 46°54' W 124°06'0 0.0
2018-Jul-11 15:00N 46°54' W 124°06'0 0.0
2018-Jul-11 13:27N 46°54' W 124°06'0 0.0
2018-Jul-11 10:19N 46°54' W 124°06'0 0.0
2018-Jul-11 10:00N 46°54' W 124°06'0 0.0
2018-Jul-11 09:29N 46°54' W 124°06'0 0.0
2018-Jul-11 08:55N 46°54' W 124°06'0 0.0
2018-Jul-11 07:25N 46°54' W 124°06'0 0.0
2018-Jul-11 06:57N 46°54' W 124°06'0 0.0
2018-Jul-11 06:30N 46°54' W 124°06'0 0.0
2018-Jul-11 06:00N 46°54' W 124°06'1 0.1
2018-Jul-10 15:28N 46°55' W 124°08'3 6.3
2018-Jul-10 15:00N 46°54' W 124°12'4 7.4
2018-Jul-10 14:31N 46°52' W 124°17'3 6.8
2018-Jul-10 14:00N 46°50' W 124°21'3 6.1
2018-Jul-10 13:30N 46°47' W 124°23'3 5.8
2018-Jul-10 13:00N 46°45' W 124°26'3 5.9
2018-Jul-10 12:30N 46°43' W 124°29'3 6.8
2018-Jul-10 12:00N 46°40' W 124°32'3 6.5
2018-Jul-10 11:30N 46°38' W 124°35'3 6.5
2018-Jul-10 11:00N 46°36' W 124°38'3 6.6
2018-Jul-10 10:30N 46°33' W 124°42'7 6.5
2018-Jul-10 09:26N 46°28' W 124°49'3 6.4
2018-Jul-10 09:00N 46°26' W 124°51'3 6.5
2018-Jul-10 08:31N 46°24' W 124°55'5 6.5
2018-Jul-10 07:41N 46°20' W 124°60'1 6.4
2018-Jul-10 07:30N 46°19' W 125°01'3 6.7
2018-Jul-10 06:59N 46°16' W 125°04'4 6.8
2018-Jul-10 06:27N 46°13' W 125°07'3 6.8
2018-Jul-10 05:58N 46°11' W 125°11'3 6.7
2018-Jul-10 05:30N 46°08' W 125°13'4 6.8
2018-Jul-10 04:58N 46°05' W 125°16'5 6.9
2018-Jul-10 04:13N 46°00' W 125°18'2 6.9
2018-Jul-10 03:58N 45°59' W 125°19'3 6.9
2018-Jul-10 03:28N 45°55' W 125°21'14 1.0
2018-Jul-09 13:52N 46°09' W 125°17'5 7.9
2018-Jul-09 13:15N 46°12' W 125°12'2 8.1
2018-Jul-09 12:59N 46°14' W 125°10'4 7.9
2018-Jul-09 12:30N 46°17' W 125°06'4 7.9
2018-Jul-09 11:59N 46°20' W 125°02'4 7.8
2018-Jul-09 11:30N 46°22' W 124°59'4 7.8
2018-Jul-09 11:00N 46°25' W 124°55'4 8.0
2018-Jul-09 10:30N 46°28' W 124°51'4 7.9
2018-Jul-09 10:00N 46°31' W 124°47'4 7.8
2018-Jul-09 09:30N 46°34' W 124°43'4 7.9
2018-Jul-09 09:00N 46°37' W 124°39'4 7.9
2018-Jul-09 08:30N 46°40' W 124°35'4 8.0
2018-Jul-09 08:00N 46°42' W 124°31'4 7.8
2018-Jul-09 07:30N 46°45' W 124°27'4 7.7
2018-Jul-09 06:59N 46°48' W 124°23'4 7.9
2018-Jul-09 06:31N 46°51' W 124°20'4 7.7
2018-Jul-09 06:00N 46°53' W 124°15'5 7.9
2018-Jul-09 05:25N 46°55' W 124°08'  
2018-Jul-06 22:48N 46°55' W 124°07'2 5.9
2018-Jul-06 22:29N 46°55' W 124°09'3 5.5
2018-Jul-06 22:00N 46°54' W 124°13'2 4.9
2018-Jul-06 21:31N 46°52' W 124°16'2 4.7
2018-Jul-06 21:00N 46°51' W 124°19'2 4.1
2018-Jul-06 20:30N 46°49' W 124°20'2 4.8
2018-Jul-06 20:00N 46°47' W 124°20'  

Dump ship's entire track history